^^
Dati Storici Stazione
Giornaliero Riassunto Gennaio 22, 2022 Unita' di misura:  Entrambe    Inglesi   Metriche
Giornaliero Settimanale Mensile Annuale
  Max: Min: Media:
Temperatura: 45.9 °F /  7.7 °C 35.5 °F /  1.9 °C 40.8 °F /  4.9 °C
Punto di Rugiada: 36.2 °F /  2.3 °C 23.2 °F /  -4.9 °C 27.8 °F /  -2.3 °C
Umidita': 87% 45.1% 60%
Velocita' Vento: 11.2mph /  18km/h - 4.6mph /  7.4km/h
Raffica di Vento: 26.5mph /  42.6km/h - -
Direzione Vento- - SE
Pressione: 30.25 in /  1024.3 hPa 30.14 in /  1020.5 hPa -
Precipitazioni: 0.02 in /  0.51 mm    
 
 
Tabelle Dati per il Gennaio 22, 2022
Ora Temperatura Punto Rugiada Pressione Dir.Vento Vel.Vento Raff.Vento Umidita' Rainfall Rate (Orario) Solare Condizioni
00:04 40.3 °F /  4.6 °C 35.1 °F /  1.7 °C 30.16in /  1021.2hPa NE 2.9mph /  4.7km/h 8mph /  12.9km/h 81.7% 0.00in /  0mm W/m2
00:09 40.4 °F /  4.7 °C 34.6 °F /  1.4 °C 30.16in /  1021.2hPa NNE 2.9mph /  4.7km/h 6mph /  9.7km/h 79.8% 0.00in /  0mm W/m2
00:14 40.4 °F /  4.7 °C 34.2 °F /  1.2 °C 30.16in /  1021.2hPa NE 2.8mph /  4.5km/h 6mph /  9.7km/h 78.3% 0.00in /  0mm W/m2
00:19 40.4 °F /  4.7 °C 33.5 °F /  0.8 °C 30.16in /  1021.2hPa NE 3mph /  4.8km/h 6mph /  9.7km/h 76.4% 0.00in /  0mm W/m2
00:24 40.4 °F /  4.7 °C 32.9 °F /  0.5 °C 30.16in /  1021.2hPa East 4.4mph /  7.1km/h 12mph /  19.3km/h 74.3% 0.00in /  0mm W/m2
00:29 40.4 °F /  4.7 °C 32.3 °F /  0.2 °C 30.15in /  1020.9hPa NE 5.9mph /  9.5km/h 13mph /  20.9km/h 72.5% 0.00in /  0mm W/m2
00:34 40.4 °F /  4.7 °C 31.7 °F /  -0.2 °C 30.15in /  1020.9hPa NE 6.2mph /  10km/h 13mph /  20.9km/h 71% 0.00in /  0mm W/m2
00:39 40.3 °F /  4.6 °C 31.5 °F /  -0.3 °C 30.15in /  1020.9hPa NE 5.2mph /  8.4km/h 13mph /  20.9km/h 70.7% 0.00in /  0mm W/m2
00:44 40.2 °F /  4.6 °C 31.1 °F /  -0.5 °C 30.16in /  1021.2hPa NE 5.4mph /  8.7km/h 12mph /  19.3km/h 69.7% 0.00in /  0mm W/m2
00:49 40.1 °F /  4.5 °C 30.7 °F /  -0.7 °C 30.16in /  1021.2hPa ENE 5.6mph /  9km/h 11mph /  17.7km/h 69% 0.00in /  0mm W/m2
00:54 40 °F /  4.4 °C 30.4 °F /  -0.9 °C 30.16in /  1021.2hPa NE 6.2mph /  10km/h 15mph /  24.1km/h 68.2% 0.00in /  0mm W/m2
00:59 39.9 °F /  4.4 °C 30 °F /  -1.1 °C 30.16in /  1021.2hPa NE 6.3mph /  10.1km/h 15mph /  24.1km/h 67.5% 0.00in /  0mm W/m2
01:04 39.8 °F /  4.3 °C 29.7 °F /  -1.3 °C 30.16in /  1021.2hPa NE 6.3mph /  10.1km/h 12mph /  19.3km/h 67% 0.00in /  0mm W/m2
01:09 39.7 °F /  4.3 °C 29.6 °F /  -1.3 °C 30.16in /  1021.2hPa NE 5.4mph /  8.7km/h 13mph /  20.9km/h 67% 0.00in /  0mm W/m2
01:14 39.4 °F /  4.1 °C 29.4 °F /  -1.4 °C 30.16in /  1021.2hPa NE 5.3mph /  8.5km/h 13mph /  20.9km/h 67% 0.00in /  0mm W/m2
01:19 39.2 °F /  4 °C 29.2 °F /  -1.6 °C 30.16in /  1021.2hPa NE 4.7mph /  7.6km/h 10mph /  16.1km/h 67% 0.00in /  0mm W/m2
01:24 39 °F /  3.9 °C 28.8 °F /  -1.8 °C 30.16in /  1021.2hPa NE 3.9mph /  6.3km/h 10mph /  16.1km/h 66.4% 0.00in /  0mm W/m2
01:29 38.8 °F /  3.8 °C 28.8 °F /  -1.8 °C 30.16in /  1021.2hPa NE 3.7mph /  6km/h 10.4mph /  16.7km/h 66.9% 0.00in /  0mm W/m2
01:34 38.6 °F /  3.7 °C 28.2 °F /  -2.1 °C 30.16in /  1021.2hPa NE 5.6mph /  9km/h 15mph /  24.1km/h 65.8% 0.00in /  0mm W/m2
01:39 38.5 °F /  3.6 °C 27.8 °F /  -2.3 °C 30.16in /  1021.2hPa NE 6.3mph /  10.1km/h 15mph /  24.1km/h 65.3% 0.00in /  0mm W/m2
01:44 38.4 °F /  3.6 °C 27.9 °F /  -2.3 °C 30.16in /  1021.2hPa NE 6.3mph /  10.1km/h 13mph /  20.9km/h 65.5% 0.00in /  0mm W/m2
01:49 38.4 °F /  3.6 °C 27.4 °F /  -2.6 °C 30.16in /  1021.2hPa NE 5.3mph /  8.5km/h 13mph /  20.9km/h 64.1% 0.00in /  0mm W/m2
01:54 38.3 °F /  3.5 °C 27.5 °F /  -2.5 °C 30.17in /  1021.6hPa NE 4.2mph /  6.8km/h 12mph /  19.3km/h 64.6% 0.00in /  0mm W/m2
01:59 38.2 °F /  3.4 °C 27 °F /  -2.8 °C 30.17in /  1021.6hPa NE 4.1mph /  6.6km/h 9.2mph /  14.8km/h 63.8% 0.00in /  0mm W/m2
02:04 38.1 °F /  3.4 °C 26.3 °F /  -3.2 °C 30.17in /  1021.6hPa NE 3.9mph /  6.3km/h 12mph /  19.3km/h 62.4% 0.00in /  0mm W/m2
02:09 37.9 °F /  3.3 °C 25.7 °F /  -3.5 °C 30.17in /  1021.6hPa NE 4.5mph /  7.2km/h 12mph /  19.3km/h 61.2% 0.00in /  0mm W/m2
02:14 37.7 °F /  3.2 °C 25.2 °F /  -3.8 °C 30.17in /  1021.6hPa NE 3.4mph /  5.5km/h 8.1mph /  13km/h 60.2% 0.00in /  0mm W/m2
02:19 37.6 °F /  3.1 °C 24.8 °F /  -4 °C 30.17in /  1021.6hPa NE 3.9mph /  6.3km/h 9.2mph /  14.8km/h 59.6% 0.00in /  0mm W/m2
02:24 37.5 °F /  3.1 °C 24.3 °F /  -4.3 °C 30.17in /  1021.6hPa NE 4.4mph /  7.1km/h 9.2mph /  14.8km/h 58.6% 0.00in /  0mm W/m2
02:29 37.5 °F /  3.1 °C 23.8 °F /  -4.6 °C 30.17in /  1021.6hPa NE 4mph /  6.4km/h 8.1mph /  13km/h 57.5% 0.00in /  0mm W/m2
02:34 37.4 °F /  3 °C 23.6 °F /  -4.7 °C 30.17in /  1021.6hPa NE 4.2mph /  6.8km/h 9mph /  14.5km/h 57.2% 0.00in /  0mm W/m2
02:39 37.4 °F /  3 °C 23.2 °F /  -4.9 °C 30.16in /  1021.2hPa NE 4.8mph /  7.7km/h 10mph /  16.1km/h 56.3% 0.00in /  0mm W/m2
02:44 37.4 °F /  3 °C 23.2 °F /  -4.9 °C 30.16in /  1021.2hPa NE 4mph /  6.4km/h 10mph /  16.1km/h 56.3% 0.00in /  0mm W/m2
02:49 37.3 °F /  2.9 °C 23.4 °F /  -4.8 °C 30.16in /  1021.2hPa NE 4.1mph /  6.6km/h 9.2mph /  14.8km/h 57% 0.00in /  0mm W/m2
02:54 37.2 °F /  2.9 °C 23.8 °F /  -4.6 °C 30.16in /  1021.2hPa NE 4.2mph /  6.8km/h 9mph /  14.5km/h 58% 0.00in /  0mm W/m2
02:59 37.1 °F /  2.8 °C 23.9 °F /  -4.5 °C 30.16in /  1021.2hPa ENE 3.8mph /  6.1km/h 7mph /  11.3km/h 58.5% 0.00in /  0mm W/m2
03:04 37.1 °F /  2.8 °C 24.1 °F /  -4.4 °C 30.16in /  1021.2hPa NE 3.7mph /  6km/h 8.1mph /  13km/h 59% 0.00in /  0mm W/m2
03:09 37.1 °F /  2.8 °C 24.5 °F /  -4.2 °C 30.16in /  1021.2hPa NE 3.1mph /  5km/h 8mph /  12.9km/h 60% 0.00in /  0mm W/m2
03:14 37.1 °F /  2.8 °C 24.7 °F /  -4.1 °C 30.16in /  1021.2hPa NE 2.2mph /  3.5km/h 7mph /  11.3km/h 60.5% 0.00in /  0mm W/m2
03:19 36.9 °F /  2.7 °C 24.9 °F /  -3.9 °C 30.16in /  1021.2hPa NE 1.9mph /  3.1km/h 5mph /  8km/h 61.5% 0.00in /  0mm W/m2
03:24 36.8 °F /  2.7 °C 25.1 °F /  -3.8 °C 30.16in /  1021.2hPa NE 2.9mph /  4.7km/h 6mph /  9.7km/h 62.3% 0.00in /  0mm W/m2
03:29 36.7 °F /  2.6 °C 25.3 °F /  -3.7 °C 30.16in /  1021.2hPa NE 3.9mph /  6.3km/h 8mph /  12.9km/h 63% 0.00in /  0mm W/m2
03:34 36.8 °F /  2.7 °C 25 °F /  -3.9 °C 30.16in /  1021.2hPa NE 3.9mph /  6.3km/h 8.1mph /  13km/h 62% 0.00in /  0mm W/m2
03:39 36.7 °F /  2.6 °C 24.9 °F /  -3.9 °C 30.16in /  1021.2hPa NE 3.4mph /  5.5km/h 8mph /  12.9km/h 62% 0.00in /  0mm W/m2
03:44 36.7 °F /  2.6 °C 24.9 °F /  -3.9 °C 30.16in /  1021.2hPa NE 2.9mph /  4.7km/h 7mph /  11.3km/h 62% 0.00in /  0mm W/m2
03:49 36.6 °F /  2.6 °C 24.8 °F /  -4 °C 30.16in /  1021.2hPa NE 3.6mph /  5.8km/h 6mph /  9.7km/h 62% 0.00in /  0mm W/m2
03:54 36.5 °F /  2.5 °C 24.7 °F /  -4.1 °C 30.16in /  1021.2hPa NE 2.4mph /  3.9km/h 6mph /  9.7km/h 62% 0.00in /  0mm W/m2
03:59 36.4 °F /  2.4 °C 24.6 °F /  -4.1 °C 30.16in /  1021.2hPa NE 2.6mph /  4.2km/h 6mph /  9.7km/h 62% 0.00in /  0mm W/m2
04:04 36.4 °F /  2.4 °C 24.6 °F /  -4.1 °C 30.16in /  1021.2hPa NE 2.2mph /  3.5km/h 6mph /  9.7km/h 62% 0.00in /  0mm W/m2
04:09 36.4 °F /  2.4 °C 24.6 °F /  -4.1 °C 30.16in /  1021.2hPa NE 2mph /  3.2km/h 5mph /  8km/h 62% 0.00in /  0mm W/m2
04:14 36.3 °F /  2.4 °C 24.5 °F /  -4.2 °C 30.16in /  1021.2hPa NE 2.4mph /  3.9km/h 7mph /  11.3km/h 62% 0.00in /  0mm W/m2
04:19 36.2 °F /  2.3 °C 24.1 °F /  -4.4 °C 30.16in /  1021.2hPa NE 2.8mph /  4.5km/h 7mph /  11.3km/h 61.1% 0.00in /  0mm W/m2
04:23 36.3 °F /  2.4 °C 24.1 °F /  -4.4 °C 30.15in /  1020.9hPa NE 3mph /  4.8km/h 7mph /  11.3km/h 61% 0.00in /  0mm W/m2
04:29 36.5 °F /  2.5 °C 24.5 °F /  -4.2 °C 30.16in /  1021.2hPa NE 1.8mph /  2.9km/h 5mph /  8km/h 61.4% 0.00in /  0mm W/m2
04:34 36.6 °F /  2.6 °C 24.7 °F /  -4.1 °C 30.16in /  1021.2hPa NE 1.5mph /  2.4km/h 5mph /  8km/h 61.8% 0.00in /  0mm W/m2
04:39 36.6 °F /  2.6 °C 24.8 °F /  -4 °C 30.16in /  1021.2hPa North 1.4mph /  2.3km/h 4mph /  6.4km/h 62% 0.00in /  0mm W/m2
04:44 36.4 °F /  2.4 °C 24.7 °F /  -4.1 °C 30.16in /  1021.2hPa NW 0.3mph /  0.5km/h 4mph /  6.4km/h 62.1% 0.00in /  0mm W/m2
04:49 36.2 °F /  2.3 °C 24.8 °F /  -4 °C 30.16in /  1021.2hPa NNW 0.3mph /  0.5km/h 3.5mph /  5.6km/h 63% 0.00in /  0mm W/m2
04:54 35.8 °F /  2.1 °C 24.9 °F /  -3.9 °C 30.16in /  1021.2hPa NNW 1.6mph /  2.6km/h 5mph /  8km/h 64.4% 0.00in /  0mm W/m2
04:59 35.5 °F /  1.9 °C 25.3 °F /  -3.7 °C 30.16in /  1021.2hPa North 1.8mph /  2.9km/h 5mph /  8km/h 65.9% 0.00in /  0mm W/m2
05:04 35.5 °F /  1.9 °C 25.6 °F /  -3.6 °C 30.16in /  1021.2hPa NNE 2.1mph /  3.4km/h 6mph /  9.7km/h 67% 0.00in /  0mm W/m2
05:09 35.9 °F /  2.2 °C 25.8 °F /  -3.4 °C 30.16in /  1021.2hPa NE 2.2mph /  3.5km/h 6mph /  9.7km/h 66.6% 0.00in /  0mm W/m2
05:14 36.1 °F /  2.3 °C 26.2 °F /  -3.2 °C 30.16in /  1021.2hPa NNE 2.1mph /  3.4km/h 6mph /  9.7km/h 67% 0.00in /  0mm W/m2
05:19 36.3 °F /  2.4 °C 26.1 °F /  -3.3 °C 30.16in /  1021.2hPa NNW 3.6mph /  5.8km/h 9.2mph /  14.8km/h 66.2% 0.00in /  0mm W/m2
05:24 36.5 °F /  2.5 °C 26.5 °F /  -3.1 °C 30.16in /  1021.2hPa NNW 2.9mph /  4.7km/h 9mph /  14.5km/h 66.9% 0.00in /  0mm W/m2
05:29 36.5 °F /  2.5 °C 26.9 °F /  -2.8 °C 30.16in /  1021.2hPa NNW 2mph /  3.2km/h 7mph /  11.3km/h 68% 0.00in /  0mm W/m2
05:34 36.5 °F /  2.5 °C 27.4 °F /  -2.6 °C 30.16in /  1021.2hPa NNW 1.5mph /  2.4km/h 6mph /  9.7km/h 69.5% 0.00in /  0mm W/m2
05:39 36.3 °F /  2.4 °C 27.8 °F /  -2.3 °C 30.16in /  1021.2hPa NNW 1.6mph /  2.6km/h 6mph /  9.7km/h 71.1% 0.00in /  0mm W/m2
05:44 36.2 °F /  2.3 °C 28.2 °F /  -2.1 °C 30.16in /  1021.2hPa NW 1.4mph /  2.3km/h 5mph /  8km/h 72.5% 0.00in /  0mm W/m2
05:49 36.1 °F /  2.3 °C 28.3 °F /  -2.1 °C 30.16in /  1021.2hPa North 1.3mph /  2.1km/h 5mph /  8km/h 73% 0.00in /  0mm W/m2
05:54 36.1 °F /  2.3 °C 28.3 °F /  -2.1 °C 30.16in /  1021.2hPa NW 1.7mph /  2.7km/h 5mph /  8km/h 73% 0.00in /  0mm W/m2
05:59 36.1 °F /  2.3 °C 28.5 °F /  -1.9 °C 30.16in /  1021.2hPa NNW 2.4mph /  3.9km/h 8.1mph /  13km/h 73.9% 0.00in /  0mm W/m2
06:04 36 °F /  2.2 °C 28.5 °F /  -1.9 °C 30.16in /  1021.2hPa NW 2.1mph /  3.4km/h 8mph /  12.9km/h 74% 0.00in /  0mm W/m2
06:09 36 °F /  2.2 °C 28.5 °F /  -1.9 °C 30.16in /  1021.2hPa NNW 3.2mph /  5.1km/h 8.1mph /  13km/h 74% 0.00in /  0mm W/m2
06:14 36 °F /  2.2 °C 28.5 °F /  -1.9 °C 30.16in /  1021.2hPa NNW 2.6mph /  4.2km/h 8.1mph /  13km/h 74% 0.00in /  0mm W/m2
06:19 36 °F /  2.2 °C 28.5 °F /  -1.9 °C 30.16in /  1021.2hPa NW 3mph /  4.8km/h 8.1mph /  13km/h 74% 0.00in /  0mm W/m2
06:24 36.1 °F /  2.3 °C 28.6 °F /  -1.9 °C 30.17in /  1021.6hPa North 3.2mph /  5.1km/h 9.2mph /  14.8km/h 74% 0.00in /  0mm W/m2
06:29 36.2 °F /  2.3 °C 28.4 °F /  -2 °C 30.17in /  1021.6hPa NNW 2.7mph /  4.3km/h 9mph /  14.5km/h 73.1% 0.00in /  0mm W/m2
06:34 36.1 °F /  2.3 °C 28.3 °F /  -2.1 °C 30.17in /  1021.6hPa NNW 2.9mph /  4.7km/h 7mph /  11.3km/h 73% 0.00in /  0mm W/m2
06:39 36 °F /  2.2 °C 28.5 °F /  -1.9 °C 30.17in /  1021.6hPa North 2.3mph /  3.7km/h 7mph /  11.3km/h 74% 0.00in /  0mm W/m2
06:44 36 °F /  2.2 °C 28.5 °F /  -1.9 °C 30.17in /  1021.6hPa NW 2.4mph /  3.9km/h 7mph /  11.3km/h 74% 0.00in /  0mm W/m2
06:49 36 °F /  2.2 °C 28.5 °F /  -1.9 °C 30.17in /  1021.6hPa NNE 2.1mph /  3.4km/h 6mph /  9.7km/h 74% 0.00in /  0mm W/m2
06:54 36.1 °F /  2.3 °C 28.5 °F /  -1.9 °C 30.17in /  1021.6hPa North 2.8mph /  4.5km/h 6mph /  9.7km/h 73.9% 0.00in /  0mm W/m2
06:59 36.1 °F /  2.3 °C 28.3 °F /  -2.1 °C 30.17in /  1021.6hPa North 3.1mph /  5km/h 7mph /  11.3km/h 73% 0.00in /  0mm W/m2
07:04 36.1 °F /  2.3 °C 28.3 °F /  -2.1 °C 30.17in /  1021.6hPa NNW 3mph /  4.8km/h 9.2mph /  14.8km/h 73% 0.00in /  0mm W/m2
07:09 36.2 °F /  2.3 °C 28.1 °F /  -2.2 °C 30.17in /  1021.6hPa North 2.7mph /  4.3km/h 9mph /  14.5km/h 72.4% 0.00in /  0mm W/m2
07:14 36.2 °F /  2.3 °C 28 °F /  -2.2 °C 30.17in /  1021.6hPa NNE 2.1mph /  3.4km/h 7mph /  11.3km/h 72% 0.00in /  0mm W/m2
07:19 36.2 °F /  2.3 °C 27.8 °F /  -2.3 °C 30.17in /  1021.6hPa North 2.4mph /  3.9km/h 6mph /  9.7km/h 71.2% 0.00in /  0mm W/m2
07:24 36.2 °F /  2.3 °C 27.6 °F /  -2.4 °C 30.17in /  1021.6hPa North 3.4mph /  5.5km/h 7mph /  11.3km/h 70.7% 0.00in /  0mm W/m2
07:29 36.3 °F /  2.4 °C 27.4 °F /  -2.6 °C 30.17in /  1021.6hPa NNW 2.5mph /  4km/h 7mph /  11.3km/h 70% 0.00in /  0mm W/m2
07:34 36.3 °F /  2.4 °C 27.4 °F /  -2.6 °C 30.17in /  1021.6hPa NNW 3.3mph /  5.3km/h 8.1mph /  13km/h 70% 0.00in /  0mm W/m2
07:39 36.4 °F /  2.4 °C 27.5 °F /  -2.5 °C 30.17in /  1021.6hPa NNE 2.6mph /  4.2km/h 8mph /  12.9km/h 70% 0.00in /  0mm W/m2
07:44 36.5 °F /  2.5 °C 27.6 °F /  -2.4 °C 30.17in /  1021.6hPa NW 3.1mph /  5km/h 8mph /  12.9km/h 70% 0.00in /  0mm W/m2
07:49 36.7 °F /  2.6 °C 27.5 °F /  -2.5 °C 30.17in /  1021.6hPa North 3.2mph /  5.1km/h 8mph /  12.9km/h 69% 0.00in /  0mm W/m2
07:54 36.8 °F /  2.7 °C 27.6 °F /  -2.4 °C 30.17in /  1021.6hPa North 2.2mph /  3.5km/h 8mph /  12.9km/h 68.8% 0.00in /  0mm W/m2
07:59 37 °F /  2.8 °C 27.4 °F /  -2.6 °C 30.17in /  1021.6hPa NNW 2.4mph /  3.9km/h 6mph /  9.7km/h 68% 0.00in /  0mm W/m2
08:04 37.1 °F /  2.8 °C 27.5 °F /  -2.5 °C 30.17in /  1021.6hPa North 2.2mph /  3.5km/h 6mph /  9.7km/h 68% 0.00in /  0mm W/m2
08:09 37.2 °F /  2.9 °C 27.6 °F /  -2.4 °C 30.17in /  1021.6hPa NNE 3.2mph /  5.1km/h 7mph /  11.3km/h 67.8% 0.00in /  0mm W/m2
08:14 37.5 °F /  3.1 °C 27.3 °F /  -2.6 °C 30.17in /  1021.6hPa NE 2.4mph /  3.9km/h 7mph /  11.3km/h 66.4% 0.00in /  0mm W/m2
08:19 38.1 °F /  3.4 °C 27.4 °F /  -2.6 °C 30.17in /  1021.6hPa North 2.9mph /  4.7km/h 8.1mph /  13km/h 65.2% 0.00in /  0mm W/m2
08:24 38.6 °F /  3.7 °C 26.6 °F /  -3 °C 30.17in /  1021.6hPa NE 4.9mph /  7.9km/h 15mph /  24.1km/h 61.8% 0.00in /  0mm W/m2
08:29 39.1 °F /  3.9 °C 25.2 °F /  -3.8 °C 30.17in /  1021.6hPa NE 6.8mph /  10.9km/h 16.1mph /  25.9km/h 57.1% 0.00in /  0mm W/m2
08:34 39.8 °F /  4.3 °C 25 °F /  -3.9 °C 30.17in /  1021.6hPa NE 5.5mph /  8.9km/h 16mph /  25.7km/h 55.2% 0.00in /  0mm W/m2
08:39 40.2 °F /  4.6 °C 25.1 °F /  -3.8 °C 30.16in /  1021.2hPa NE 5.9mph /  9.5km/h 17mph /  27.4km/h 54.5% 0.00in /  0mm W/m2
08:44 40.5 °F /  4.7 °C 25.2 °F /  -3.8 °C 30.16in /  1021.2hPa NE 4.6mph /  7.4km/h 17mph /  27.4km/h 54% 0.00in /  0mm W/m2
08:49 40.8 °F /  4.9 °C 25.5 °F /  -3.6 °C 30.17in /  1021.6hPa NE 3.5mph /  5.6km/h 10mph /  16.1km/h 54.2% 0.00in /  0mm W/m2
08:54 41.1 °F /  5.1 °C 25.1 °F /  -3.8 °C 30.16in /  1021.2hPa NE 4.9mph /  7.9km/h 10.4mph /  16.7km/h 52.5% 0.00in /  0mm W/m2
08:59 41.2 °F /  5.1 °C 24.5 °F /  -4.2 °C 30.16in /  1021.2hPa NE 5.9mph /  9.5km/h 12mph /  19.3km/h 51.1% 0.00in /  0mm W/m2
09:04 41.4 °F /  5.2 °C 24.1 °F /  -4.4 °C 30.16in /  1021.2hPa NE 5.6mph /  9km/h 12mph /  19.3km/h 50% 0.00in /  0mm W/m2
09:09 41.5 °F /  5.3 °C 24 °F /  -4.4 °C 30.16in /  1021.2hPa NE 7.4mph /  11.9km/h 14mph /  22.5km/h 49.5% 0.00in /  0mm W/m2
09:14 41.7 °F /  5.4 °C 24 °F /  -4.4 °C 30.16in /  1021.2hPa NE 7.2mph /  11.6km/h 15mph /  24.1km/h 49.2% 0.00in /  0mm W/m2
09:19 41.8 °F /  5.4 °C 24.2 °F /  -4.3 °C 30.16in /  1021.2hPa NE 7.1mph /  11.4km/h 15mph /  24.1km/h 49.4% 0.00in /  0mm W/m2
09:24 41.9 °F /  5.5 °C 24.2 °F /  -4.3 °C 30.16in /  1021.2hPa ENE 8.5mph /  13.7km/h 17mph /  27.4km/h 49.1% 0.00in /  0mm W/m2
09:29 42 °F /  5.6 °C 24.2 °F /  -4.3 °C 30.16in /  1021.2hPa NE 7.5mph /  12.1km/h 17mph /  27.4km/h 49% 0.00in /  0mm W/m2
09:34 42.1 °F /  5.6 °C 24.3 °F /  -4.3 °C 30.16in /  1021.2hPa NE 8.1mph /  13km/h 15mph /  24.1km/h 49% 0.00in /  0mm W/m2
09:39 42.3 °F /  5.7 °C 24.6 °F /  -4.1 °C 30.16in /  1021.2hPa NE 7.7mph /  12.4km/h 16mph /  25.7km/h 49.3% 0.00in /  0mm W/m2
09:44 42.4 °F /  5.8 °C 24.6 °F /  -4.1 °C 30.16in /  1021.2hPa NE 7.7mph /  12.4km/h 16mph /  25.7km/h 49% 0.00in /  0mm W/m2
09:49 42.5 °F /  5.8 °C 24.7 °F /  -4.1 °C 30.16in /  1021.2hPa NE 7.9mph /  12.7km/h 16mph /  25.7km/h 49% 0.00in /  0mm W/m2
09:54 42.6 °F /  5.9 °C 25.5 °F /  -3.6 °C 30.17in /  1021.6hPa NE 6.2mph /  10km/h 15mph /  24.1km/h 50.6% 0.00in /  0mm W/m2
09:59 42.9 °F /  6.1 °C 26 °F /  -3.3 °C 30.17in /  1021.6hPa NE 6.5mph /  10.5km/h 12mph /  19.3km/h 51% 0.00in /  0mm W/m2
10:04 43.1 °F /  6.2 °C 26.6 °F /  -3 °C 30.17in /  1021.6hPa NE 6.5mph /  10.5km/h 12mph /  19.3km/h 51.8% 0.00in /  0mm W/m2
10:09 43.2 °F /  6.2 °C 26.4 °F /  -3.1 °C 30.17in /  1021.6hPa NE 8.1mph /  13km/h 15mph /  24.1km/h 51.1% 0.00in /  0mm W/m2
10:14 43.2 °F /  6.2 °C 26.4 °F /  -3.1 °C 30.17in /  1021.6hPa NE 8.1mph /  13km/h 19mph /  30.6km/h 51.4% 0.00in /  0mm W/m2
10:19 43.3 °F /  6.3 °C 26.7 °F /  -2.9 °C 30.17in /  1021.6hPa NE 9.1mph /  14.6km/h 19mph /  30.6km/h 51.6% 0.00in /  0mm W/m2
10:24 43.4 °F /  6.3 °C 26.1 °F /  -3.3 °C 30.17in /  1021.6hPa NE 8.3mph /  13.4km/h 17.3mph /  27.8km/h 50.2% 0.00in /  0mm W/m2
10:29 43.4 °F /  6.3 °C 25.7 °F /  -3.5 °C 30.17in /  1021.6hPa NE 9.6mph /  15.4km/h 17.3mph /  27.8km/h 49.3% 0.00in /  0mm W/m2
10:34 43.5 °F /  6.4 °C 25.6 °F /  -3.6 °C 30.17in /  1021.6hPa NE 7.9mph /  12.7km/h 17.3mph /  27.8km/h 49% 0.00in /  0mm W/m2
10:39 43.6 °F /  6.4 °C 26 °F /  -3.3 °C 30.17in /  1021.6hPa NE 8.9mph /  14.3km/h 26.5mph /  42.6km/h 49.5% 0.00in /  0mm W/m2
10:44 43.6 °F /  6.4 °C 25.7 °F /  -3.5 °C 30.17in /  1021.6hPa NE 9.4mph /  15.1km/h 26mph /  41.8km/h 49% 0.00in /  0mm W/m2
10:54 43.6 °F /  6.4 °C 25.7 °F /  -3.5 °C 30.17in /  1021.6hPa NE 11.2mph /  18km/h 24mph /  38.6km/h 49% 0.00in /  0mm W/m2
10:59 43.7 °F /  6.5 °C 25.1 °F /  -3.8 °C 30.17in /  1021.6hPa NE 9.6mph /  15.4km/h 24mph /  38.6km/h 47.7% 0.00in /  0mm W/m2
11:04 43.7 °F /  6.5 °C 24.1 °F /  -4.4 °C 30.17in /  1021.6hPa NE 9.4mph /  15.1km/h 23mph /  37km/h 45.8% 0.00in /  0mm W/m2
11:09 43.8 °F /  6.6 °C 24.3 °F /  -4.3 °C 30.17in /  1021.6hPa NE 6.9mph /  11.1km/h 23mph /  37km/h 46% 0.00in /  0mm W/m2
11:14 44.1 °F /  6.7 °C 25.6 °F /  -3.6 °C 30.17in /  1021.6hPa NE 8mph /  12.9km/h 16.1mph /  25.9km/h 48% 0.00in /  0mm W/m2
11:19 44 °F /  6.7 °C 25.4 °F /  -3.7 °C 30.17in /  1021.6hPa NE 8.5mph /  13.7km/h 16.1mph /  25.9km/h 47.8% 0.00in /  0mm W/m2
11:24 43.9 °F /  6.6 °C 25.7 °F /  -3.5 °C 30.17in /  1021.6hPa NE 7.9mph /  12.7km/h 16.1mph /  25.9km/h 48.4% 0.00in /  0mm W/m2
11:29 44.1 °F /  6.7 °C 26 °F /  -3.3 °C 30.17in /  1021.6hPa NE 9.3mph /  15km/h 17.3mph /  27.8km/h 48.9% 0.00in /  0mm W/m2
11:34 44.2 °F /  6.8 °C 26.4 °F /  -3.1 °C 30.17in /  1021.6hPa NE 7.1mph /  11.4km/h 18.4mph /  29.6km/h 49.4% 0.00in /  0mm W/m2
11:39 44.3 °F /  6.8 °C 26.7 °F /  -2.9 °C 30.17in /  1021.6hPa NE 7.8mph /  12.6km/h 18mph /  29km/h 49.8% 0.00in /  0mm W/m2
11:44 44.3 °F /  6.8 °C 26.8 °F /  -2.9 °C 30.17in /  1021.6hPa NE 8.3mph /  13.4km/h 19.6mph /  31.5km/h 50% 0.00in /  0mm W/m2
11:49 44.1 °F /  6.7 °C 26.2 °F /  -3.2 °C 30.17in /  1021.6hPa NE 9mph /  14.5km/h 20mph /  32.2km/h 49.1% 0.00in /  0mm W/m2
11:54 44.3 °F /  6.8 °C 25.9 °F /  -3.4 °C 30.17in /  1021.6hPa NE 6.7mph /  10.8km/h 20mph /  32.2km/h 48.1% 0.00in /  0mm W/m2
11:59 44.5 °F /  6.9 °C 25.7 °F /  -3.5 °C 30.17in /  1021.6hPa NE 8.3mph /  13.4km/h 16mph /  25.7km/h 47.5% 0.00in /  0mm W/m2
12:04 44.4 °F /  6.9 °C 26.6 °F /  -3 °C 30.17in /  1021.6hPa NE 7.2mph /  11.6km/h 16.1mph /  25.9km/h 49.4% 0.00in /  0mm W/m2
12:09 44.5 °F /  6.9 °C 27 °F /  -2.8 °C 30.17in /  1021.6hPa NE 7.1mph /  11.4km/h 20mph /  32.2km/h 49.9% 0.00in /  0mm W/m2
12:14 44.6 °F /  7 °C 26 °F /  -3.3 °C 30.16in /  1021.2hPa NE 6.1mph /  9.8km/h 20mph /  32.2km/h 47.9% 0.00in /  0mm W/m2
12:19 44.6 °F /  7 °C 25.9 °F /  -3.4 °C 30.16in /  1021.2hPa NE 9mph /  14.5km/h 16.1mph /  25.9km/h 47.6% 0.00in /  0mm W/m2
12:24 44.5 °F /  6.9 °C 26.4 °F /  -3.1 °C 30.16in /  1021.2hPa NE 9.6mph /  15.4km/h 19.6mph /  31.5km/h 48.9% 0.00in /  0mm W/m2
12:29 44.5 °F /  6.9 °C 25.6 °F /  -3.6 °C 30.16in /  1021.2hPa NE 7.8mph /  12.6km/h 22mph /  35.4km/h 47.3% 0.00in /  0mm W/m2
12:34 44.4 °F /  6.9 °C 25.5 °F /  -3.6 °C 30.16in /  1021.2hPa NE 7.6mph /  12.2km/h 22mph /  35.4km/h 47.2% 0.00in /  0mm W/m2
12:39 44.5 °F /  6.9 °C 26.1 °F /  -3.3 °C 30.16in /  1021.2hPa NE 6.2mph /  10km/h 16mph /  25.7km/h 48.2% 0.00in /  0mm W/m2
12:44 44.9 °F /  7.2 °C 26.3 °F /  -3.2 °C 30.16in /  1021.2hPa NE 5.6mph /  9km/h 15mph /  24.1km/h 47.9% 0.00in /  0mm W/m2
12:49 44.9 °F /  7.2 °C 26.1 °F /  -3.3 °C 30.16in /  1021.2hPa NE 8mph /  12.9km/h 18.4mph /  29.6km/h 47.4% 0.00in /  0mm W/m2
12:54 44.6 °F /  7 °C 26.5 °F /  -3.1 °C 30.16in /  1021.2hPa NE 6.4mph /  10.3km/h 18mph /  29km/h 48.7% 0.00in /  0mm W/m2
12:59 44.7 °F /  7.1 °C 26.7 °F /  -2.9 °C 30.15in /  1020.9hPa NE 5.1mph /  8.2km/h 15mph /  24.1km/h 49% 0.00in /  0mm W/m2
13:04 44.8 °F /  7.1 °C 26.4 °F /  -3.1 °C 30.16in /  1021.2hPa NE 7.6mph /  12.2km/h 14mph /  22.5km/h 48.1% 0.00in /  0mm W/m2
13:09 44.6 °F /  7 °C 26.8 °F /  -2.9 °C 30.16in /  1021.2hPa NE 5.9mph /  9.5km/h 14mph /  22.5km/h 49.3% 0.00in /  0mm W/m2
13:14 44.9 °F /  7.2 °C 27.4 °F /  -2.6 °C 30.15in /  1020.9hPa NE 5.8mph /  9.3km/h 12mph /  19.3km/h 50% 0.00in /  0mm W/m2
13:19 45 °F /  7.2 °C 27.5 °F /  -2.5 °C 30.16in /  1021.2hPa NE 5.6mph /  9km/h 12mph /  19.3km/h 50.1% 0.00in /  0mm W/m2
13:24 44.8 °F /  7.1 °C 26.9 °F /  -2.8 °C 30.16in /  1021.2hPa NE 4.9mph /  7.9km/h 12mph /  19.3km/h 49.2% 0.00in /  0mm W/m2
13:29 44.9 °F /  7.2 °C 27.6 °F /  -2.4 °C 30.15in /  1020.9hPa NE 5mph /  8km/h 14mph /  22.5km/h 50.4% 0.00in /  0mm W/m2
13:34 45.3 °F /  7.4 °C 27.3 °F /  -2.6 °C 30.15in /  1020.9hPa NE 5.8mph /  9.3km/h 14mph /  22.5km/h 49.1% 0.00in /  0mm W/m2
13:39 45.6 °F /  7.6 °C 26.8 °F /  -2.9 °C 30.15in /  1020.9hPa NE 6mph /  9.7km/h 12mph /  19.3km/h 47.7% 0.00in /  0mm W/m2
13:44 45.7 °F /  7.6 °C 26.4 °F /  -3.1 °C 30.15in /  1020.9hPa NNE 6.1mph /  9.8km/h 15mph /  24.1km/h 46.7% 0.00in /  0mm W/m2
13:49 45.9 °F /  7.7 °C 25.9 °F /  -3.4 °C 30.15in /  1020.9hPa NNE 6.1mph /  9.8km/h 15mph /  24.1km/h 45.4% 0.00in /  0mm W/m2
13:54 45.7 °F /  7.6 °C 25.6 °F /  -3.6 °C 30.15in /  1020.9hPa NNE 6mph /  9.7km/h 15mph /  24.1km/h 45.1% 0.00in /  0mm W/m2
13:59 45.2 °F /  7.3 °C 25.9 °F /  -3.4 °C 30.15in /  1020.9hPa NNE 5mph /  8km/h 14mph /  22.5km/h 46.5% 0.00in /  0mm W/m2
14:04 44.9 °F /  7.2 °C 26.7 °F /  -2.9 °C 30.15in /  1020.9hPa NNE 4.5mph /  7.2km/h 12mph /  19.3km/h 48.6% 0.00in /  0mm W/m2
14:09 44.6 °F /  7 °C 26.1 °F /  -3.3 °C 30.15in /  1020.9hPa North 5.9mph /  9.5km/h 17mph /  27.4km/h 48.1% 0.00in /  0mm W/m2
14:14 44.3 °F /  6.8 °C 25.3 °F /  -3.7 °C 30.15in /  1020.9hPa NNE 5.7mph /  9.2km/h 17mph /  27.4km/h 47% 0.00in /  0mm W/m2
14:19 44.1 °F /  6.7 °C 25.6 °F /  -3.6 °C 30.15in /  1020.9hPa NNE 4.9mph /  7.9km/h 12mph /  19.3km/h 48% 0.00in /  0mm W/m2
14:24 44 °F /  6.7 °C 25.5 °F /  -3.6 °C 30.15in /  1020.9hPa NE 5.8mph /  9.3km/h 15mph /  24.1km/h 47.9% 0.00in /  0mm W/m2
14:29 43.7 °F /  6.5 °C 24.9 °F /  -3.9 °C 30.15in /  1020.9hPa NNE 6mph /  9.7km/h 15mph /  24.1km/h 47% 0.00in /  0mm W/m2
14:34 43.5 °F /  6.4 °C 24.6 °F /  -4.1 °C 30.15in /  1020.9hPa NNE 5.4mph /  8.7km/h 13mph /  20.9km/h 47% 0.00in /  0mm W/m2
14:39 43.4 °F /  6.3 °C 24.9 °F /  -3.9 °C 30.15in /  1020.9hPa NNE 3.7mph /  6km/h 13mph /  20.9km/h 47.9% 0.00in /  0mm W/m2
14:44 43.3 °F /  6.3 °C 25.3 °F /  -3.7 °C 30.16in /  1021.2hPa North 2.9mph /  4.7km/h 7mph /  11.3km/h 48.7% 0.00in /  0mm W/m2
14:49 43.2 °F /  6.2 °C 25.4 °F /  -3.7 °C 30.15in /  1020.9hPa North 3.6mph /  5.8km/h 9.2mph /  14.8km/h 49.2% 0.00in /  0mm W/m2
14:54 43.2 °F /  6.2 °C 25.8 °F /  -3.4 °C 30.16in /  1021.2hPa North 2.9mph /  4.7km/h 9mph /  14.5km/h 50% 0.00in /  0mm W/m2
14:59 43 °F /  6.1 °C 25.6 °F /  -3.6 °C 30.15in /  1020.9hPa NNW 4.3mph /  6.9km/h 13mph /  20.9km/h 50% 0.00in /  0mm W/m2
15:04 42.8 °F /  6 °C 25.4 °F /  -3.7 °C 30.16in /  1021.2hPa NNW 6.1mph /  9.8km/h 13mph /  20.9km/h 50% 0.00in /  0mm W/m2
15:09 42.6 °F /  5.9 °C 25.3 °F /  -3.7 °C 30.16in /  1021.2hPa WNW 5mph /  8km/h 13mph /  20.9km/h 50.1% 0.00in /  0mm W/m2
15:14 42.5 °F /  5.8 °C 25.4 °F /  -3.7 °C 30.16in /  1021.2hPa NNW 4.6mph /  7.4km/h 12mph /  19.3km/h 50.6% 0.00in /  0mm W/m2
15:19 42.4 °F /  5.8 °C 25.5 °F /  -3.6 °C 30.16in /  1021.2hPa North 3.1mph /  5km/h 12mph /  19.3km/h 50.9% 0.00in /  0mm W/m2
15:24 42.4 °F /  5.8 °C 25.6 °F /  -3.6 °C 30.16in /  1021.2hPa NW 2.9mph /  4.7km/h 9mph /  14.5km/h 51.2% 0.00in /  0mm W/m2
15:29 42.4 °F /  5.8 °C 25.9 °F /  -3.4 °C 30.16in /  1021.2hPa WNW 1.2mph /  1.9km/h 7mph /  11.3km/h 51.9% 0.00in /  0mm W/m2
15:34 42.5 °F /  5.8 °C 26.1 °F /  -3.3 °C 30.15in /  1020.9hPa WNW 1.3mph /  2.1km/h 4mph /  6.4km/h 52% 0.00in /  0mm W/m2
15:39 42.7 °F /  5.9 °C 26.3 °F /  -3.2 °C 30.15in /  1020.9hPa North 1.1mph /  1.8km/h 6mph /  9.7km/h 52% 0.00in /  0mm W/m2
15:44 42.7 °F /  5.9 °C 26.3 °F /  -3.2 °C 30.15in /  1020.9hPa WNW 1.7mph /  2.7km/h 7mph /  11.3km/h 52% 0.00in /  0mm W/m2
15:49 42.6 °F /  5.9 °C 26.4 °F /  -3.1 °C 30.15in /  1020.9hPa NNW 2.5mph /  4km/h 7mph /  11.3km/h 52.5% 0.00in /  0mm W/m2
15:54 42.6 °F /  5.9 °C 26.8 °F /  -2.9 °C 30.15in /  1020.9hPa NNW 3mph /  4.8km/h 12mph /  19.3km/h 53.5% 0.00in /  0mm W/m2
15:59 42.6 °F /  5.9 °C 27.1 °F /  -2.7 °C 30.15in /  1020.9hPa West 3.2mph /  5.1km/h 12mph /  19.3km/h 54% 0.00in /  0mm W/m2
16:04 42.6 °F /  5.9 °C 27.5 °F /  -2.5 °C 30.15in /  1020.9hPa NW 1.6mph /  2.6km/h 8mph /  12.9km/h 55% 0.00in /  0mm W/m2
16:09 42.6 °F /  5.9 °C 27.5 °F /  -2.5 °C 30.15in /  1020.9hPa NNW 0.9mph /  1.4km/h 8mph /  12.9km/h 55% 0.00in /  0mm W/m2
16:14 42.6 °F /  5.9 °C 27.7 °F /  -2.4 °C 30.15in /  1020.9hPa WNW 2.7mph /  4.3km/h 10mph /  16.1km/h 55.3% 0.00in /  0mm W/m2
16:19 42.7 °F /  5.9 °C 27.6 °F /  -2.4 °C 30.15in /  1020.9hPa NNW 2mph /  3.2km/h 10.4mph /  16.7km/h 55% 0.00in /  0mm W/m2
16:24 42.7 °F /  5.9 °C 27.9 °F /  -2.3 °C 30.15in /  1020.9hPa NW 1.9mph /  3.1km/h 8mph /  12.9km/h 55.6% 0.00in /  0mm W/m2
16:29 42.8 °F /  6 °C 28.2 °F /  -2.1 °C 30.15in /  1020.9hPa West 0.9mph /  1.4km/h 8mph /  12.9km/h 56% 0.00in /  0mm W/m2
16:34 43 °F /  6.1 °C 28.4 °F /  -2 °C 30.15in /  1020.9hPa SW 1mph /  1.6km/h 4mph /  6.4km/h 56% 0.00in /  0mm W/m2
16:39 43.3 °F /  6.3 °C 28.6 °F /  -1.9 °C 30.14in /  1020.5hPa West 1.6mph /  2.6km/h 6mph /  9.7km/h 56% 0.00in /  0mm W/m2
16:44 43.6 °F /  6.4 °C 28.6 °F /  -1.9 °C 30.14in /  1020.5hPa WNW 1.6mph /  2.6km/h 6mph /  9.7km/h 55.5% 0.00in /  0mm W/m2
16:49 43.5 °F /  6.4 °C 28.6 °F /  -1.9 °C 30.14in /  1020.5hPa WNW 2mph /  3.2km/h 8.1mph /  13km/h 55.4% 0.00in /  0mm W/m2
16:54 43.1 °F /  6.2 °C 28.5 °F /  -1.9 °C 30.14in /  1020.5hPa North 1.3mph /  2.1km/h 8mph /  12.9km/h 56% 0.00in /  0mm W/m2
16:59 42.7 °F /  5.9 °C 28.4 °F /  -2 °C 30.15in /  1020.9hPa NNW 2.8mph /  4.5km/h 7mph /  11.3km/h 56.8% 0.00in /  0mm W/m2
17:04 42.5 °F /  5.8 °C 28.3 °F /  -2.1 °C 30.14in /  1020.5hPa NNW 2mph /  3.2km/h 7mph /  11.3km/h 57% 0.00in /  0mm W/m2
17:09 42.4 °F /  5.8 °C 28.2 °F /  -2.1 °C 30.14in /  1020.5hPa NNW 3.3mph /  5.3km/h 9mph /  14.5km/h 57% 0.00in /  0mm W/m2
17:14 42.4 °F /  5.8 °C 27.9 °F /  -2.3 °C 30.14in /  1020.5hPa NNW 5.4mph /  8.7km/h 10.4mph /  16.7km/h 56.4% 0.00in /  0mm W/m2
17:19 42.5 °F /  5.8 °C 27.9 °F /  -2.3 °C 30.14in /  1020.5hPa NNW 3.6mph /  5.8km/h 10mph /  16.1km/h 56% 0.00in /  0mm W/m2
17:24 42.6 °F /  5.9 °C 27.5 °F /  -2.5 °C 30.14in /  1020.5hPa NW 4mph /  6.4km/h 10mph /  16.1km/h 55% 0.00in /  0mm W/m2
17:29 42.7 °F /  5.9 °C 27.3 °F /  -2.6 °C 30.14in /  1020.5hPa NW 3.8mph /  6.1km/h 11.5mph /  18.5km/h 54.3% 0.00in /  0mm W/m2
17:34 42.8 °F /  6 °C 27.1 °F /  -2.7 °C 30.14in /  1020.5hPa WNW 4.1mph /  6.6km/h 12mph /  19.3km/h 53.6% 0.00in /  0mm W/m2
17:39 42.9 °F /  6.1 °C 27 °F /  -2.8 °C 30.14in /  1020.5hPa NW 4mph /  6.4km/h 10.4mph /  16.7km/h 53.3% 0.00in /  0mm W/m2
17:44 42.9 °F /  6.1 °C 27.4 °F /  -2.6 °C 30.14in /  1020.5hPa NNW 3.1mph /  5km/h 10mph /  16.1km/h 54% 0.00in /  0mm W/m2
17:49 42.9 °F /  6.1 °C 26.9 °F /  -2.8 °C 30.14in /  1020.5hPa WNW 4.1mph /  6.6km/h 10.4mph /  16.7km/h 53.1% 0.00in /  0mm W/m2
17:54 42.9 °F /  6.1 °C 27.3 °F /  -2.6 °C 30.15in /  1020.9hPa NNW 3.6mph /  5.8km/h 10mph /  16.1km/h 53.7% 0.00in /  0mm W/m2
17:59 42.8 °F /  6 °C 27.3 °F /  -2.6 °C 30.15in /  1020.9hPa NW 2.9mph /  4.7km/h 8.1mph /  13km/h 54% 0.00in /  0mm W/m2
18:04 42.7 °F /  5.9 °C 27.4 °F /  -2.6 °C 30.15in /  1020.9hPa NNW 3.9mph /  6.3km/h 10.4mph /  16.7km/h 54.6% 0.00in /  0mm W/m2
18:09 42.5 °F /  5.8 °C 27.5 °F /  -2.5 °C 30.15in /  1020.9hPa NW 3.9mph /  6.3km/h 11mph /  17.7km/h 55% 0.00in /  0mm W/m2
18:14 42.5 °F /  5.8 °C 27.2 °F /  -2.7 °C 30.15in /  1020.9hPa NW 4mph /  6.4km/h 11mph /  17.7km/h 54.5% 0.00in /  0mm W/m2
18:19 42.4 °F /  5.8 °C 27 °F /  -2.8 °C 30.15in /  1020.9hPa NW 4.2mph /  6.8km/h 11.5mph /  18.5km/h 54.3% 0.00in /  0mm W/m2
18:24 42.4 °F /  5.8 °C 26.9 °F /  -2.8 °C 30.15in /  1020.9hPa NW 4.3mph /  6.9km/h 9.2mph /  14.8km/h 54% 0.00in /  0mm W/m2
18:29 42.4 °F /  5.8 °C 26.9 °F /  -2.8 °C 30.15in /  1020.9hPa NW 3.7mph /  6km/h 9mph /  14.5km/h 54% 0.00in /  0mm W/m2
18:34 42.6 °F /  5.9 °C 26.6 °F /  -3 °C 30.15in /  1020.9hPa NW 5mph /  8km/h 11.5mph /  18.5km/h 53.1% 0.00in /  0mm W/m2
18:39 42.8 °F /  6 °C 26.7 °F /  -2.9 °C 30.15in /  1020.9hPa North 5.8mph /  9.3km/h 12mph /  19.3km/h 52.9% 0.00in /  0mm W/m2
18:44 43 °F /  6.1 °C 26.6 °F /  -3 °C 30.15in /  1020.9hPa North 4.3mph /  6.9km/h 12mph /  19.3km/h 52% 0.00in /  0mm W/m2
18:49 43.2 °F /  6.2 °C 26.7 °F /  -2.9 °C 30.15in /  1020.9hPa North 3.9mph /  6.3km/h 12mph /  19.3km/h 52% 0.00in /  0mm W/m2
18:54 43.2 °F /  6.2 °C 26.7 °F /  -2.9 °C 30.15in /  1020.9hPa NNE 4.3mph /  6.9km/h 11.5mph /  18.5km/h 51.9% 0.00in /  0mm W/m2
18:59 43.3 °F /  6.3 °C 26.6 °F /  -3 °C 30.16in /  1021.2hPa NNE 3.9mph /  6.3km/h 12mph /  19.3km/h 51.7% 0.00in /  0mm W/m2
19:04 43.3 °F /  6.3 °C 26.5 °F /  -3.1 °C 30.16in /  1021.2hPa NNW 4.9mph /  7.9km/h 12mph /  19.3km/h 51.2% 0.00in /  0mm W/m2
19:09 43.3 °F /  6.3 °C 26.7 °F /  -2.9 °C 30.16in /  1021.2hPa NNW 3.3mph /  5.3km/h 12mph /  19.3km/h 51.8% 0.00in /  0mm W/m2
19:14 43.3 °F /  6.3 °C 26.8 °F /  -2.9 °C 30.16in /  1021.2hPa North 5.1mph /  8.2km/h 12mph /  19.3km/h 52% 0.00in /  0mm W/m2
19:19 43.2 °F /  6.2 °C 26.7 °F /  -2.9 °C 30.16in /  1021.2hPa North 5.1mph /  8.2km/h 12mph /  19.3km/h 52% 0.00in /  0mm W/m2
19:24 43.2 °F /  6.2 °C 26.7 °F /  -2.9 °C 30.16in /  1021.2hPa North 4.5mph /  7.2km/h 10.4mph /  16.7km/h 52% 0.00in /  0mm W/m2
19:29 43.1 °F /  6.2 °C 26.7 °F /  -2.9 °C 30.16in /  1021.2hPa NNW 5mph /  8km/h 14mph /  22.5km/h 52% 0.00in /  0mm W/m2
19:34 43.1 °F /  6.2 °C 26.6 °F /  -3 °C 30.16in /  1021.2hPa NW 6mph /  9.7km/h 14mph /  22.5km/h 51.8% 0.00in /  0mm W/m2
19:39 43.1 °F /  6.2 °C 26.6 °F /  -3 °C 30.16in /  1021.2hPa NW 5.3mph /  8.5km/h 13mph /  20.9km/h 51.8% 0.00in /  0mm W/m2
19:44 42.9 °F /  6.1 °C 26.5 °F /  -3.1 °C 30.16in /  1021.2hPa North 4.7mph /  7.6km/h 13mph /  20.9km/h 52% 0.00in /  0mm W/m2
19:49 42.9 °F /  6.1 °C 26.5 °F /  -3.1 °C 30.17in /  1021.6hPa NNW 4.7mph /  7.6km/h 12mph /  19.3km/h 52.2% 0.00in /  0mm W/m2
19:54 42.8 °F /  6 °C 26.8 °F /  -2.9 °C 30.16in /  1021.2hPa North 4.6mph /  7.4km/h 12mph /  19.3km/h 53% 0.00in /  0mm W/m2
19:59 42.8 °F /  6 °C 26.8 °F /  -2.9 °C 30.17in /  1021.6hPa NNE 3.8mph /  6.1km/h 10.4mph /  16.7km/h 53% 0.00in /  0mm W/m2
20:04 42.9 °F /  6.1 °C 27 °F /  -2.8 °C 30.17in /  1021.6hPa NNE 4.1mph /  6.6km/h 11.5mph /  18.5km/h 53.2% 0.00in /  0mm W/m2
20:09 43 °F /  6.1 °C 27.5 °F /  -2.5 °C 30.17in /  1021.6hPa NNE 5.7mph /  9.2km/h 12mph /  19.3km/h 54% 0.00in /  0mm W/m2
20:14 43.3 °F /  6.3 °C 27.8 °F /  -2.3 °C 30.18in /  1021.9hPa NE 5.2mph /  8.4km/h 11.5mph /  18.5km/h 54% 0.00in /  0mm W/m2
20:19 43.4 °F /  6.3 °C 28.3 °F /  -2.1 °C 30.19in /  1022.2hPa NE 6.1mph /  9.8km/h 14mph /  22.5km/h 54.9% 0.00in /  0mm W/m2
20:24 43.6 °F /  6.4 °C 28.9 °F /  -1.7 °C 30.20in /  1022.6hPa NE 5.3mph /  8.5km/h 14mph /  22.5km/h 56% 0.00in /  0mm W/m2
20:29 43.6 °F /  6.4 °C 30.2 °F /  -1 °C 30.20in /  1022.6hPa NE 5.7mph /  9.2km/h 13mph /  20.9km/h 59.1% 0.00in /  0mm W/m2
20:34 42.6 °F /  5.9 °C 32.6 °F /  0.3 °C 30.20in /  1022.6hPa NE 9.5mph /  15.3km/h 23mph /  37km/h 67.5% 0.00in /  0mm W/m2
20:39 41.6 °F /  5.3 °C 34.4 °F /  1.3 °C 30.21in /  1022.9hPa NE 7.4mph /  11.9km/h 23mph /  37km/h 75.5% 0.01in /  0.25mm W/m2
20:44 41 °F /  5 °C 35 °F /  1.7 °C 30.21in /  1022.9hPa NE 5.5mph /  8.9km/h 15mph /  24.1km/h 78.9% 0.02in /  0.51mm W/m2
20:49 40.6 °F /  4.8 °C 35.5 °F /  1.9 °C 30.21in /  1022.9hPa NNE 4.5mph /  7.2km/h 11.5mph /  18.5km/h 82% 0.02in /  0.51mm W/m2
20:54 40.1 °F /  4.5 °C 35.7 °F /  2.1 °C 30.21in /  1022.9hPa North 5.2mph /  8.4km/h 14mph /  22.5km/h 84.1% 0.02in /  0.51mm W/m2
20:59 39.8 °F /  4.3 °C 35.9 °F /  2.2 °C 30.21in /  1022.9hPa North 6.9mph /  11.1km/h 15mph /  24.1km/h 85.6% 0.02in /  0.51mm W/m2
21:04 39.6 °F /  4.2 °C 35.8 °F /  2.1 °C 30.21in /  1022.9hPa NNW 6.6mph /  10.6km/h 15mph /  24.1km/h 86% 0.02in /  0.51mm W/m2
21:09 39.3 °F /  4.1 °C 35.5 °F /  1.9 °C 30.21in /  1022.9hPa NW 6.4mph /  10.3km/h 15mph /  24.1km/h 86% 0.02in /  0.51mm W/m2
21:14 39.1 °F /  3.9 °C 35.5 °F /  1.9 °C 30.21in /  1022.9hPa NW 5.3mph /  8.5km/h 14mph /  22.5km/h 86.6% 0.02in /  0.51mm W/m2
21:19 39.1 °F /  3.9 °C 35.6 °F /  2 °C 30.22in /  1023.2hPa NNW 5.4mph /  8.7km/h 14mph /  22.5km/h 87% 0.02in /  0.51mm W/m2
21:24 39.2 °F /  4 °C 35.4 °F /  1.9 °C 30.22in /  1023.2hPa NNW 6.1mph /  9.8km/h 15mph /  24.1km/h 86.2% 0.02in /  0.51mm W/m2
21:29 39.4 °F /  4.1 °C 35.6 °F /  2 °C 30.22in /  1023.2hPa North 4.9mph /  7.9km/h 15mph /  24.1km/h 86% 0.02in /  0.51mm W/m2
21:34 39.5 °F /  4.2 °C 35.7 °F /  2.1 °C 30.22in /  1023.2hPa NNW 5.1mph /  8.2km/h 14mph /  22.5km/h 86% 0.02in /  0.51mm W/m2
21:39 39.6 °F /  4.2 °C 35.7 °F /  2.1 °C 30.22in /  1023.2hPa NNW 6.4mph /  10.3km/h 15mph /  24.1km/h 85.8% 0.02in /  0.51mm W/m2
21:44 39.6 °F /  4.2 °C 35.8 °F /  2.1 °C 30.22in /  1023.2hPa NNW 4.9mph /  7.9km/h 15mph /  24.1km/h 86% 0.01in /  0.25mm W/m2
21:49 39.6 °F /  4.2 °C 35.9 °F /  2.2 °C 30.22in /  1023.2hPa NNW 5mph /  8km/h 13mph /  20.9km/h 86.3% 0.01in /  0.25mm W/m2
21:54 39.6 °F /  4.2 °C 36 °F /  2.2 °C 30.22in /  1023.2hPa NNW 4.9mph /  7.9km/h 13mph /  20.9km/h 87% 0.00in /  0mm W/m2
21:59 39.6 °F /  4.2 °C 36 °F /  2.2 °C 30.22in /  1023.2hPa NNW 3.2mph /  5.1km/h 10mph /  16.1km/h 87% 0.00in /  0mm W/m2
22:04 39.7 °F /  4.3 °C 36.1 °F /  2.3 °C 30.22in /  1023.2hPa NNW 4.5mph /  7.2km/h 10.4mph /  16.7km/h 87% 0.00in /  0mm W/m2
22:09 39.8 °F /  4.3 °C 36.2 °F /  2.3 °C 30.22in /  1023.2hPa NNW 3.8mph /  6.1km/h 12mph /  19.3km/h 87% 0.00in /  0mm W/m2
22:14 40 °F /  4.4 °C 36.2 °F /  2.3 °C 30.22in /  1023.2hPa NNW 4mph /  6.4km/h 13mph /  20.9km/h 86.1% 0.00in /  0mm W/m2
22:19 40.3 °F /  4.6 °C 36.2 °F /  2.3 °C 30.22in /  1023.2hPa NNE 3.7mph /  6km/h 13mph /  20.9km/h 85.4% 0.00in /  0mm W/m2
22:24 40.6 °F /  4.8 °C 36.1 °F /  2.3 °C 30.22in /  1023.2hPa NE 3.7mph /  6km/h 8.1mph /  13km/h 84% 0.00in /  0mm W/m2
22:29 40.9 °F /  4.9 °C 35.8 °F /  2.1 °C 30.23in /  1023.6hPa NNE 2.9mph /  4.7km/h 8mph /  12.9km/h 82% 0.00in /  0mm W/m2
22:34 41.1 °F /  5.1 °C 35.7 °F /  2.1 °C 30.23in /  1023.6hPa NE 3.1mph /  5km/h 7mph /  11.3km/h 80.8% 0.00in /  0mm W/m2
22:39 41.2 °F /  5.1 °C 35.5 °F /  1.9 °C 30.23in /  1023.6hPa NE 2.9mph /  4.7km/h 7mph /  11.3km/h 80% 0.00in /  0mm W/m2
22:44 41.3 °F /  5.2 °C 35.6 °F /  2 °C 30.23in /  1023.6hPa NE 2.5mph /  4km/h 7mph /  11.3km/h 80% 0.00in /  0mm W/m2
22:49 41.3 °F /  5.2 °C 35.6 °F /  2 °C 30.23in /  1023.6hPa NE 2.8mph /  4.5km/h 8.1mph /  13km/h 80% 0.00in /  0mm W/m2
22:54 41.4 °F /  5.2 °C 34.3 °F /  1.3 °C 30.23in /  1023.6hPa NE 3.4mph /  5.5km/h 9mph /  14.5km/h 75.8% 0.00in /  0mm W/m2
22:59 41.9 °F /  5.5 °C 32.3 °F /  0.2 °C 30.24in /  1023.9hPa NE 4.7mph /  7.6km/h 11.5mph /  18.5km/h 68.7% 0.00in /  0mm W/m2
23:04 42.4 °F /  5.8 °C 31.3 °F /  -0.4 °C 30.24in /  1023.9hPa NE 4.4mph /  7.1km/h 14mph /  22.5km/h 64.6% 0.00in /  0mm W/m2
23:09 42.6 °F /  5.9 °C 30.4 °F /  -0.9 °C 30.24in /  1023.9hPa NE 5.3mph /  8.5km/h 14mph /  22.5km/h 61.7% 0.00in /  0mm W/m2
23:14 42.7 °F /  5.9 °C 29.8 °F /  -1.2 °C 30.24in /  1023.9hPa NE 5.4mph /  8.7km/h 15mph /  24.1km/h 60.1% 0.00in /  0mm W/m2
23:19 42.7 °F /  5.9 °C 29.6 °F /  -1.3 °C 30.24in /  1023.9hPa NE 6.7mph /  10.8km/h 15mph /  24.1km/h 59.4% 0.00in /  0mm W/m2
23:24 42.7 °F /  5.9 °C 29.4 °F /  -1.4 °C 30.24in /  1023.9hPa NE 6.6mph /  10.6km/h 15mph /  24.1km/h 59% 0.00in /  0mm W/m2
23:29 42.6 °F /  5.9 °C 29.3 °F /  -1.5 °C 30.24in /  1023.9hPa NE 5.1mph /  8.2km/h 13mph /  20.9km/h 59% 0.00in /  0mm W/m2
23:34 42.6 °F /  5.9 °C 29.3 °F /  -1.5 °C 30.24in /  1023.9hPa NE 4mph /  6.4km/h 12mph /  19.3km/h 59% 0.00in /  0mm W/m2
23:39 42.5 °F /  5.8 °C 29.2 °F /  -1.6 °C 30.25in /  1024.3hPa NE 4.6mph /  7.4km/h 12mph /  19.3km/h 59% 0.00in /  0mm W/m2
23:44 42.5 °F /  5.8 °C 29.2 °F /  -1.6 °C 30.25in /  1024.3hPa NE 5.2mph /  8.4km/h 11mph /  17.7km/h 59% 0.00in /  0mm W/m2
23:49 42.5 °F /  5.8 °C 29 °F /  -1.7 °C 30.25in /  1024.3hPa NE 7.3mph /  11.7km/h 14mph /  22.5km/h 58.6% 0.00in /  0mm W/m2
23:54 42.5 °F /  5.8 °C 29.1 °F /  -1.6 °C 30.25in /  1024.3hPa NE 5.3mph /  8.5km/h 14mph /  22.5km/h 58.8% 0.00in /  0mm W/m2
23:59 42.4 °F /  5.8 °C 29.3 °F /  -1.5 °C 30.25in /  1024.3hPa NE 4.2mph /  6.8km/h 11mph /  17.7km/h 59.3% 0.00in /  0mm W/m2
Acquaviva delle Fonti, BA, Italia
Complimenti a Weather Underground - 3.25 mb